Time;durP1;ratioP1;P1;durP2;ratioP2;P2;SDS_P1;SDS_P2;PMS_P1;PMS_P2;Temp;Humidity;BMP_temperature;BMP_pressure;BME280_temperature;BME280_humidity;BME280_pressure;Samples;Min_cycle;Max_cycle;Signal;HPM_P1;HPM_P2
2020/12/29 00:00:56;;;;;;;4.17;2.57;;;1.60;91.50;;;;;;5113170;28;20377;-81
2020/12/29 00:03:23;;;;;;;4.72;2.90;;;1.50;91.20;;;;;;5111353;28;20381;-81
2020/12/29 00:05:49;;;;;;;7.60;2.90;;;1.40;91.60;;;;;;5111223;28;20422;-80
2020/12/29 00:08:15;;;;;;;3.50;2.53;;;1.40;91.70;;;;;;5110884;28;20385;-81
2020/12/29 00:10:41;;;;;;;3.63;2.28;;;1.50;91.90;;;;;;5111352;28;20399;-81
2020/12/29 00:13:08;;;;;;;4.55;2.08;;;1.60;91.70;;;;;;5111104;28;20442;-80
2020/12/29 00:15:37;;;;;;;5.65;2.53;;;1.50;91.40;;;;;;5111438;28;20488;-81
2020/12/29 00:18:03;;;;;;;3.03;2.20;;;1.50;91.70;;;;;;5110533;28;20788;-81
2020/12/29 00:20:28;;;;;;;4.22;2.28;;;1.40;91.70;;;;;;5111374;28;20471;-81
2020/12/29 00:22:54;;;;;;;3.70;2.42;;;1.40;91.70;;;;;;5110906;28;20762;-80
2020/12/29 00:25:19;;;;;;;5.22;2.53;;;1.30;91.60;;;;;;5112349;28;20500;-80
2020/12/29 00:27:45;;;;;;;3.05;2.50;;;1.40;91.90;;;;;;5111800;28;20495;-80
2020/12/29 00:30:12;;;;;;;3.80;2.57;;;1.40;91.80;;;;;;5110954;28;20983;-80
2020/12/29 00:32:37;;;;;;;6.10;3.08;;;1.40;91.90;;;;;;5111125;28;20384;-80
2020/12/29 00:35:04;;;;;;;5.40;3.30;;;1.40;91.80;;;;;;5112124;28;20703;-81
2020/12/29 00:37:30;;;;;;;6.88;3.30;;;1.40;91.90;;;;;;5110359;28;20408;-81
2020/12/29 00:39:55;;;;;;;4.65;3.20;;;1.40;92.00;;;;;;5110434;28;20441;-81
2020/12/29 00:42:21;;;;;;;4.85;3.35;;;1.40;92.10;;;;;;5112157;28;20910;-80
2020/12/29 00:44:47;;;;;;;6.32;3.17;;;1.40;91.90;;;;;;5112462;28;20391;-80
2020/12/29 00:47:12;;;;;;;6.63;3.92;;;1.40;91.90;;;;;;5110259;28;20471;-80
2020/12/29 00:49:39;;;;;;;7.65;3.88;;;1.40;92.00;;;;;;5111696;28;20381;-80
2020/12/29 00:52:05;;;;;;;6.97;3.75;;;1.40;92.00;;;;;;5111272;28;20384;-80
2020/12/29 00:54:31;;;;;;;6.37;3.30;;;1.40;92.00;;;;;;5110021;28;21107;-80
2020/12/29 00:56:57;;;;;;;7.60;2.70;;;1.40;92.00;;;;;;5111772;28;20460;-80
2020/12/29 00:59:23;;;;;;;4.07;2.20;;;1.40;92.00;;;;;;5110365;28;20392;-80
2020/12/29 01:01:56;;;;;;;6.47;2.00;;;1.30;92.00;;;;;;5111459;28;20439;-80
2020/12/29 01:04:25;;;;;;;4.35;2.10;;;1.30;92.10;;;;;;5111811;28;20412;-80
2020/12/29 01:06:51;;;;;;;2.38;1.65;;;1.20;91.90;;;;;;5110659;28;20935;-80
2020/12/29 01:09:16;;;;;;;2.30;1.80;;;1.20;92.00;;;;;;5111334;28;20376;-80
2020/12/29 01:11:42;;;;;;;3.43;1.90;;;1.20;92.10;;;;;;5109659;28;20371;-80
2020/12/29 01:14:08;;;;;;;3.35;1.58;;;1.20;91.90;;;;;;5110278;28;20384;-80
2020/12/29 01:16:34;;;;;;;3.53;1.90;;;1.10;91.80;;;;;;5111386;28;20471;-79
2020/12/29 01:19:00;;;;;;;2.57;1.67;;;1.10;91.90;;;;;;5109563;28;20428;-80
2020/12/29 01:21:25;;;;;;;3.97;1.67;;;1.10;91.90;;;;;;5109947;28;20380;-80
2020/12/29 01:23:51;;;;;;;5.88;2.08;;;1.10;91.70;;;;;;5111882;28;20879;-80
2020/12/29 01:26:26;;;;;;;3.35;1.60;;;1.00;91.80;;;;;;5111524;28;20461;-80
2020/12/29 01:28:53;;;;;;;3.93;1.80;;;1.00;91.70;;;;;;5110791;28;20368;-80
2020/12/29 01:31:32;;;;;;;2.53;1.60;;;0.90;91.90;;;;;;5111393;28;20383;-80
2020/12/29 01:33:59;;;;;;;4.00;2.05;;;0.90;92.00;;;;;;5109823;28;20444;-80
2020/12/29 01:36:25;;;;;;;2.80;2.00;;;0.90;92.00;;;;;;5111324;28;20463;-80
2020/12/29 01:38:51;;;;;;;2.47;1.80;;;0.90;91.70;;;;;;5109321;28;20765;-80
2020/12/29 01:41:19;;;;;;;3.03;1.70;;;0.80;91.80;;;;;;5111223;28;20375;-80
2020/12/29 01:43:44;;;;;;;4.10;1.85;;;0.80;91.90;;;;;;5109765;28;20387;-80
2020/12/29 01:46:10;;;;;;;3.58;1.92;;;0.70;91.70;;;;;;5111320;28;20859;-80
2020/12/29 01:48:36;;;;;;;6.53;2.03;;;0.70;91.90;;;;;;5109941;28;20375;-80
2020/12/29 01:51:03;;;;;;;3.00;2.00;;;0.80;91.90;;;;;;5110083;28;20769;-80
2020/12/29 01:53:28;;;;;;;3.03;1.95;;;0.80;91.70;;;;;;5110711;28;20780;-80
2020/12/29 01:55:54;;;;;;;2.38;1.75;;;0.70;91.80;;;;;;5111074;28;20396;-80
2020/12/29 01:58:20;;;;;;;2.65;1.80;;;0.70;91.80;;;;;;5110300;28;20408;-80
2020/12/29 02:00:47;;;;;;;4.17;2.17;;;0.70;92.00;;;;;;5110022;28;20557;-80
2020/12/29 02:03:15;;;;;;;2.70;2.08;;;0.60;91.80;;;;;;5110731;28;20373;-80
2020/12/29 02:05:46;;;;;;;3.90;2.60;;;0.60;91.90;;;;;;5110891;28;20419;-80
2020/12/29 02:08:12;;;;;;;2.97;2.00;;;0.60;91.90;;;;;;5110249;28;20404;-80
2020/12/29 02:10:39;;;;;;;4.53;2.03;;;0.50;91.80;;;;;;5110373;28;20764;-80
2020/12/29 02:13:05;;;;;;;6.43;2.10;;;0.60;91.50;;;;;;5109241;28;20381;-80
2020/12/29 02:15:30;;;;;;;3.25;2.17;;;0.60;91.80;;;;;;5109239;28;20399;-80
2020/12/29 02:17:56;;;;;;;3.85;2.22;;;0.50;91.70;;;;;;5110255;28;20408;-80
2020/12/29 02:20:22;;;;;;;2.55;2.08;;;0.50;91.80;;;;;;5110353;28;20754;-80
2020/12/29 02:22:47;;;;;;;4.10;1.98;;;0.50;91.70;;;;;;5109312;28;20424;-80
2020/12/29 02:25:13;;;;;;;4.43;2.17;;;0.40;91.70;;;;;;5110332;28;20376;-80
2020/12/29 02:27:48;;;;;;;3.42;2.10;;;0.40;91.80;;;;;;5110418;28;20463;-79
2020/12/29 02:30:16;;;;;;;4.18;2.42;;;0.40;91.90;;;;;;5111867;28;20907;-80
2020/12/29 02:32:41;;;;;;;2.83;1.77;;;0.40;91.70;;;;;;5115012;28;20373;-79
2020/12/29 02:35:08;;;;;;;6.55;2.40;;;0.40;91.80;;;;;;5114720;28;20471;-80
2020/12/29 02:37:34;;;;;;;4.78;2.20;;;0.40;91.80;;;;;;5114423;28;20407;-79
2020/12/29 02:40:00;;;;;;;4.22;2.05;;;0.40;91.90;;;;;;5114532;28;20383;-79
2020/12/29 02:42:25;;;;;;;4.00;2.03;;;0.30;91.90;;;;;;5114460;28;20853;-80
2020/12/29 02:44:51;;;;;;;3.08;2.22;;;0.30;92.00;;;;;;5114558;28;20380;-79
2020/12/29 02:47:16;;;;;;;3.28;2.13;;;0.20;92.20;;;;;;5114048;28;20475;-80
2020/12/29 02:49:42;;;;;;;3.67;2.10;;;0.20;92.20;;;;;;5114291;28;20380;-79
2020/12/29 02:52:08;;;;;;;3.50;2.10;;;0.20;92.00;;;;;;5114583;28;20376;-79
2020/12/29 02:54:34;;;;;;;9.23;2.40;;;0.20;92.00;;;;;;5114562;28;20376;-79
2020/12/29 02:57:00;;;;;;;3.10;2.03;;;0.20;91.90;;;;;;5113338;28;20931;-79
2020/12/29 02:59:25;;;;;;;4.00;2.50;;;0.10;92.10;;;;;;5114412;28;20888;-79
2020/12/29 03:01:52;;;;;;;4.07;2.03;;;0.00;92.10;;;;;;5113729;28;20432;-79
2020/12/29 03:04:20;;;;;;;4.45;2.38;;;0.00;92.70;;;;;;5112960;28;20471;-79
2020/12/29 03:06:46;;;;;;;4.57;2.17;;;0.00;92.50;;;;;;5113603;28;20384;-79
2020/12/29 03:09:13;;;;;;;4.13;2.35;;;0.00;92.60;;;;;;5114342;28;20894;-79
2020/12/29 03:11:39;;;;;;;3.47;2.13;;;0.00;92.50;;;;;;5114125;28;20907;-79
2020/12/29 03:14:07;;;;;;;4.68;2.20;;;0.00;92.30;;;;;;5113858;28;20666;-78
2020/12/29 03:16:34;;;;;;;3.80;2.00;;;0.00;92.30;;;;;;5112304;28;20377;-79
2020/12/29 03:19:01;;;;;;;3.13;1.92;;;0.00;92.30;;;;;;5113645;28;20380;-80
2020/12/29 03:21:27;;;;;;;3.25;2.10;;;0.00;92.20;;;;;;5112669;28;20438;-79
2020/12/29 03:23:52;;;;;;;4.17;2.40;;;0.00;92.10;;;;;;5113803;28;20733;-79
2020/12/29 03:26:18;;;;;;;4.83;2.20;;;0.00;92.00;;;;;;5112527;28;20377;-79
2020/12/29 03:28:44;;;;;;;3.70;2.20;;;0.00;92.00;;;;;;5111823;28;20876;-79
2020/12/29 03:31:10;;;;;;;4.00;2.15;;;0.00;92.00;;;;;;5113745;28;20452;-79
2020/12/29 03:33:36;;;;;;;3.95;2.30;;;0.00;91.90;;;;;;5112186;28;20380;-79
2020/12/29 03:36:02;;;;;;;2.80;2.20;;;0.00;91.90;;;;;;5112357;28;20471;-79
2020/12/29 03:38:28;;;;;;;3.45;2.40;;;0.00;91.40;;;;;;5112840;28;20872;-78
2020/12/29 03:40:54;;;;;;;4.38;2.50;;;0.00;92.10;;;;;;5111139;28;20393;-78
2020/12/29 03:43:20;;;;;;;4.20;2.75;;;-3276.60;92.40;;;;;;5113332;28;20376;-79
2020/12/29 03:45:47;;;;;;;6.27;2.90;;;-3276.50;92.80;;;;;;5111655;28;20457;-79
2020/12/29 03:48:15;;;;;;;3.42;2.15;;;-3276.60;92.70;;;;;;5111931;28;20448;-80
2020/12/29 03:50:42;;;;;;;2.83;2.17;;;-3276.70;92.70;;;;;;5111816;28;20478;-79
2020/12/29 03:53:08;;;;;;;5.20;2.40;;;-3276.70;92.60;;;;;;5113212;28;20471;-79
2020/12/29 03:55:34;;;;;;;4.28;2.40;;;0.00;92.40;;;;;;5112991;28;20860;-79
2020/12/29 03:58:00;;;;;;;3.20;2.10;;;0.00;92.30;;;;;;5111451;28;20931;-79
2020/12/29 04:00:26;;;;;;;4.17;2.40;;;0.00;92.20;;;;;;5113295;28;20666;-80
2020/12/29 04:02:51;;;;;;;3.67;2.22;;;0.00;92.20;;;;;;5111874;28;20815;-79
2020/12/29 04:05:18;;;;;;;5.32;2.80;;;0.00;92.10;;;;;;5112833;28;20694;-79
2020/12/29 04:07:44;;;;;;;2.80;2.45;;;-3276.70;92.50;;;;;;5111484;28;20388;-79
2020/12/29 04:10:10;;;;;;;5.70;2.58;;;-3276.70;92.70;;;;;;5112477;28;20380;-79
2020/12/29 04:12:36;;;;;;;2.67;2.00;;;-3276.60;92.80;;;;;;5111461;28;20384;-79
2020/12/29 04:15:02;;;;;;;4.95;2.80;;;-3276.70;92.70;;;;;;5112951;28;20444;-79
2020/12/29 04:17:32;;;;;;;6.83;2.80;;;-3276.60;92.60;;;;;;5110754;28;20404;-79
2020/12/29 04:19:58;;;;;;;4.75;2.80;;;-3276.60;92.90;;;;;;5112950;28;20837;-79
2020/12/29 04:22:23;;;;;;;4.50;2.60;;;-3276.60;93.10;;;;;;5112615;28;20376;-79
2020/12/29 04:24:49;;;;;;;3.43;2.40;;;-3276.70;93.20;;;;;;5112720;28;20369;-79
2020/12/29 04:27:14;;;;;;;3.63;2.60;;;0.00;93.10;;;;;;5110860;28;20429;-79
2020/12/29 04:29:40;;;;;;;5.07;3.00;;;0.00;92.80;;;;;;5112769;28;20455;-79
2020/12/29 04:32:06;;;;;;;4.45;2.95;;;0.00;92.60;;;;;;5111051;28;20396;-79
2020/12/29 04:34:31;;;;;;;4.60;2.70;;;0.00;92.50;;;;;;5112822;28;20471;-79
2020/12/29 04:36:57;;;;;;;3.63;2.40;;;0.00;93.00;;;;;;5112128;28;20408;-80
2020/12/29 04:39:22;;;;;;;3.78;2.53;;;0.10;92.90;;;;;;5112966;28;20384;-79
2020/12/29 04:41:53;;;;;;;3.45;2.60;;;0.10;93.00;;;;;;5112772;28;20923;-79
2020/12/29 04:44:20;;;;;;;9.52;2.97;;;0.10;92.80;;;;;;5112473;28;20380;-80
2020/12/29 04:46:46;;;;;;;5.68;3.00;;;0.10;92.70;;;;;;5110946;28;20490;-80
2020/12/29 04:49:12;;;;;;;6.53;2.78;;;0.10;92.70;;;;;;5112205;28;20471;-80
2020/12/29 04:51:39;;;;;;;5.07;2.80;;;0.20;92.80;;;;;;5112897;28;20375;-80
2020/12/29 04:54:07;;;;;;;4.30;2.43;;;0.10;92.80;;;;;;5111946;28;20437;-80
2020/12/29 04:56:34;;;;;;;4.00;2.80;;;0.20;92.90;;;;;;5112159;28;20423;-80
2020/12/29 04:59:00;;;;;;;4.22;2.60;;;0.10;92.90;;;;;;5110474;28;20392;-80
2020/12/29 05:01:30;;;;;;;4.55;2.65;;;0.10;93.00;;;;;;5112099;28;20408;-80
2020/12/29 05:03:55;;;;;;;5.07;2.63;;;0.10;92.60;;;;;;5111829;28;20399;-80
2020/12/29 05:06:25;;;;;;;4.10;2.50;;;0.10;92.90;;;;;;5111980;28;20493;-80
2020/12/29 05:08:55;;;;;;;4.00;2.55;;;0.10;93.00;;;;;;5111368;28;20376;-80
2020/12/29 05:11:24;;;;;;;4.60;2.65;;;0.10;93.00;;;;;;5111714;28;20373;-80
2020/12/29 05:13:50;;;;;;;3.75;2.70;;;0.20;93.00;;;;;;5110495;28;20613;-80
2020/12/29 05:16:16;;;;;;;5.65;2.85;;;0.20;93.10;;;;;;5111459;28;20422;-80
2020/12/29 05:18:43;;;;;;;4.88;2.78;;;0.10;93.20;;;;;;5109815;28;20429;-80
2020/12/29 05:21:08;;;;;;;3.97;2.65;;;0.20;93.20;;;;;;5111417;28;20860;-80
2020/12/29 05:23:37;;;;;;;3.95;2.92;;;0.10;93.10;;;;;;5111887;28;20368;-80
2020/12/29 05:26:06;;;;;;;4.35;2.95;;;0.20;93.30;;;;;;5111647;28;20373;-80
2020/12/29 05:28:33;;;;;;;4.43;3.08;;;0.20;93.00;;;;;;5111175;28;20718;-80
2020/12/29 05:31:01;;;;;;;6.18;3.28;;;0.20;93.10;;;;;;5109910;28;20466;-80
2020/12/29 05:33:27;;;;;;;5.63;3.03;;;0.30;93.20;;;;;;5109801;28;20383;-80
2020/12/29 05:35:54;;;;;;;5.30;3.08;;;0.20;93.30;;;;;;5109815;28;20395;-80
2020/12/29 05:38:20;;;;;;;6.00;3.15;;;0.20;93.60;;;;;;5109278;28;20726;-80
2020/12/29 05:40:47;;;;;;;6.35;3.58;;;0.20;93.40;;;;;;5109999;28;20395;-80
2020/12/29 05:43:14;;;;;;;4.85;3.33;;;0.10;94.00;;;;;;5111285;28;20404;-80
2020/12/29 05:45:40;;;;;;;6.07;3.78;;;0.10;94.30;;;;;;5109930;28;20385;-81
2020/12/29 05:48:06;;;;;;;7.10;3.55;;;0.20;94.00;;;;;;5110710;28;20384;-80
2020/12/29 05:50:32;;;;;;;7.30;3.45;;;0.20;94.30;;;;;;5109850;28;20625;-80
2020/12/29 05:53:10;;;;;;;8.38;3.10;;;0.30;94.10;;;;;;5110770;28;20694;-80
2020/12/29 05:55:36;;;;;;;10.90;3.83;;;0.30;94.10;;;;;;5109702;28;20395;-80
2020/12/29 05:58:06;;;;;;;9.52;3.10;;;0.40;94.30;;;;;;5110449;28;20400;-80
2020/12/29 06:00:36;;;;;;;5.47;3.13;;;0.40;94.30;;;;;;5110772;28;20407;-80
2020/12/29 06:03:04;;;;;;;8.25;3.38;;;0.40;94.40;;;;;;5109888;28;20471;-80
2020/12/29 06:05:32;;;;;;;7.53;3.28;;;0.40;94.50;;;;;;5109013;28;20402;-80
2020/12/29 06:08:03;;;;;;;8.13;3.58;;;0.40;94.30;;;;;;5109209;28;20384;-80
2020/12/29 06:10:30;;;;;;;6.47;3.28;;;0.40;94.10;;;;;;5110591;28;20381;-80
2020/12/29 06:13:01;;;;;;;5.28;2.97;;;0.40;94.00;;;;;;5110879;28;20376;-80
2020/12/29 06:15:35;;;;;;;4.80;3.10;;;0.40;93.70;;;;;;5109379;28;20380;-80
2020/12/29 06:18:05;;;;;;;5.00;2.87;;;0.30;93.70;;;;;;5108950;28;20911;-81
2020/12/29 06:20:37;;;;;;;6.55;3.22;;;0.40;94.20;;;;;;5109135;28;20423;-80
2020/12/29 06:23:04;;;;;;;4.63;3.05;;;0.40;94.20;;;;;;5110584;28;20373;-80
2020/12/29 06:25:35;;;;;;;5.57;3.33;;;0.30;93.90;;;;;;5109191;28;20392;-81
2020/12/29 06:28:05;;;;;;;7.28;3.58;;;0.20;94.00;;;;;;5109985;28;20372;-80
2020/12/29 06:30:33;;;;;;;5.35;3.25;;;0.20;93.90;;;;;;5110990;28;20368;-81
2020/12/29 06:33:00;;;;;;;6.20;3.28;;;0.20;93.70;;;;;;5110370;28;20376;-81
2020/12/29 06:35:26;;;;;;;5.85;3.47;;;0.20;93.60;;;;;;5109444;28;20462;-81
2020/12/29 06:37:58;;;;;;;6.65;3.17;;;0.20;94.20;;;;;;5108355;28;20892;-80
2020/12/29 06:40:26;;;;;;;5.47;3.58;;;0.10;93.90;;;;;;5109136;28;20399;-80
2020/12/29 06:42:53;;;;;;;6.82;3.35;;;0.20;93.90;;;;;;5109834;28;20468;-80
2020/12/29 06:45:18;;;;;;;5.32;3.40;;;0.20;93.70;;;;;;5108759;28;20377;-80
2020/12/29 06:47:45;;;;;;;6.97;4.10;;;0.10;94.00;;;;;;5108626;28;20384;-80
2020/12/29 06:50:29;;;;;;;6.60;4.03;;;0.10;94.10;;;;;;5110317;28;20392;-80
2020/12/29 06:53:03;;;;;;;9.30;4.47;;;0.10;94.50;;;;;;5109272;28;20864;-80
2020/12/29 06:55:39;;;;;;;10.20;4.47;;;0.20;94.80;;;;;;5108927;28;20473;-80
2020/12/29 06:58:05;;;;;;;8.30;4.33;;;0.20;94.70;;;;;;5108642;28;20457;-80
2020/12/29 07:00:33;;;;;;;8.88;4.97;;;0.20;94.70;;;;;;5110043;28;20958;-81
2020/12/29 07:02:59;;;;;;;7.35;4.25;;;0.20;94.60;;;;;;5109132;28;21020;-80
2020/12/29 07:05:25;;;;;;;11.97;5.23;;;0.20;94.40;;;;;;5110485;28;20384;-81
2020/12/29 07:07:51;;;;;;;9.35;4.75;;;0.30;95.10;;;;;;5108814;28;20487;-80
2020/12/29 07:10:18;;;;;;;7.68;4.50;;;0.20;94.50;;;;;;5110002;28;20597;-80
2020/12/29 07:12:46;;;;;;;6.30;4.28;;;0.20;94.40;;;;;;5110159;28;20449;-80
2020/12/29 07:15:18;;;;;;;11.63;5.00;;;0.10;94.20;;;;;;5110663;28;20848;-81
2020/12/29 07:17:58;;;;;;;9.35;5.65;;;0.10;94.90;;;;;;5112901;28;20403;-81
2020/12/29 07:20:26;;;;;;;11.60;6.40;;;0.40;95.60;;;;;;5114322;28;20399;-80
2020/12/29 07:23:21;;;;;;;9.40;5.80;;;0.40;94.80;;;;;;5112568;28;20388;-80
2020/12/29 07:25:49;;;;;;;10.00;5.65;;;0.40;95.30;;;;;;5100686;28;20396;-80
2020/12/29 07:28:18;;;;;;;10.87;6.03;;;0.30;95.00;;;;;;5111966;28;20412;-80
2020/12/29 07:30:44;;;;;;;13.75;6.82;;;0.50;95.50;;;;;;5112143;28;20427;-80
2020/12/29 07:33:10;;;;;;;11.57;5.68;;;0.50;95.20;;;;;;5113906;28;20377;-80
2020/12/29 07:35:38;;;;;;;12.40;6.87;;;0.60;95.30;;;;;;5112168;28;20381;-80
2020/12/29 07:38:15;;;;;;;12.35;6.60;;;0.60;95.00;;;;;;5113319;28;20404;-79
2020/12/29 07:40:43;;;;;;;15.63;6.60;;;0.70;95.50;;;;;;5112004;28;20388;-80
2020/12/29 07:43:09;;;;;;;11.90;6.40;;;0.60;95.00;;;;;;5112120;28;20388;-80
2020/12/29 07:45:35;;;;;;;10.57;6.00;;;0.70;95.60;;;;;;5113287;28;20376;-80
2020/12/29 07:48:02;;;;;;;15.13;7.38;;;0.80;95.40;;;;;;5111894;28;20411;-80
2020/12/29 07:50:29;;;;;;;12.10;7.13;;;0.90;95.50;;;;;;5113245;28;20369;-80
2020/12/29 07:53:04;;;;;;;15.68;7.25;;;0.90;95.50;;;;;;5113225;28;20380;-80
2020/12/29 07:55:30;;;;;;;13.00;7.13;;;1.00;95.30;;;;;;5113378;28;20488;-79
2020/12/29 07:58:06;;;;;;;18.38;6.97;;;1.00;95.20;;;;;;5112553;28;20877;-79
2020/12/29 08:00:33;;;;;;;13.43;7.93;;;1.00;95.10;;;;;;5113006;28;20889;-80
2020/12/29 08:02:58;;;;;;;14.63;7.50;;;1.10;95.10;;;;;;5111691;28;20422;-78
2020/12/29 08:05:26;;;;;;;15.98;7.50;;;1.10;95.00;;;;;;5113268;28;20884;-79
2020/12/29 08:07:59;;;;;;;16.15;7.40;;;1.10;95.20;;;;;;5112501;28;20377;-78
2020/12/29 08:10:28;;;;;;;13.63;7.47;;;1.10;95.00;;;;;;5110430;27;20434;-80
2020/12/29 08:12:59;;;;;;;12.30;7.47;;;1.20;95.10;;;;;;5111824;27;20732;-78
2020/12/29 08:15:27;;;;;;;13.95;7.63;;;1.20;94.80;;;;;;5111048;28;20417;-78
2020/12/29 08:18:25;;;;;;;17.47;8.17;;;1.10;95.10;;;;;;5108937;28;20400;-79
2020/12/29 08:20:54;;;;;;;13.52;8.02;;;1.30;94.60;;;;;;5075861;28;20503;-79
2020/12/29 08:23:21;;;;;;;17.42;8.57;;;1.30;94.80;;;;;;5111082;28;20770;-79
2020/12/29 08:26:01;;;;;;;16.83;8.75;;;1.20;94.70;;;;;;5110816;28;20384;-80
2020/12/29 08:28:33;;;;;;;17.48;8.55;;;1.30;94.80;;;;;;5111117;28;20410;-79
2020/12/29 08:31:03;;;;;;;16.77;9.07;;;1.20;94.80;;;;;;5110926;28;20769;-80
2020/12/29 08:33:30;;;;;;;14.93;8.27;;;1.30;94.90;;;;;;5110931;28;20519;-79
2020/12/29 08:36:01;;;;;;;14.82;9.15;;;1.30;94.80;;;;;;5111169;28;20465;-79
2020/12/29 08:38:29;;;;;;;16.25;8.75;;;1.40;94.80;;;;;;5110264;28;20451;-79
2020/12/29 08:41:13;;;;;;;16.13;8.93;;;1.40;94.20;;;;;;5112241;28;20426;-80
2020/12/29 08:43:43;;;;;;;17.45;9.32;;;1.40;94.30;;;;;;5112498;27;20416;-80
2020/12/29 08:46:10;;;;;;;18.63;8.80;;;1.40;94.30;;;;;;5112344;28;20380;-79
2020/12/29 08:48:36;;;;;;;14.68;8.93;;;1.50;93.80;;;;;;5110019;28;20737;-79
2020/12/29 08:51:20;;;;;;;15.85;8.93;;;1.60;93.50;;;;;;5110729;28;20873;-80
2020/12/29 08:53:47;;;;;;;22.63;8.90;;;1.50;93.70;;;;;;5110478;28;20440;-79
2020/12/29 08:56:25;;;;;;;18.02;8.50;;;1.60;93.30;;;;;;5111482;28;20424;-79
2020/12/29 08:58:52;;;;;;;17.53;8.70;;;1.60;93.30;;;;;;5111352;28;20472;-79
2020/12/29 09:01:35;;;;;;;18.17;8.73;;;1.70;93.00;;;;;;5111732;28;20395;-79
2020/12/29 09:04:40;;;;;;;16.30;8.80;;;1.70;93.20;;;;;;5111487;28;20439;-78
2020/12/29 09:07:08;;;;;;;18.40;8.82;;;1.70;92.90;;;;;;5111057;28;20422;-78
2020/12/29 09:09:55;;;;;;;20.88;9.45;;;1.70;92.70;;;;;;5111467;28;20408;-77
2020/12/29 09:12:32;;;;;;;18.88;8.80;;;1.80;93.10;;;;;;5111368;28;20486;-78
2020/12/29 09:14:59;;;;;;;19.15;8.93;;;1.80;92.90;;;;;;5111070;27;20573;-78
2020/12/29 09:17:30;;;;;;;14.65;8.30;;;1.80;92.80;;;;;;5111028;28;20407;-78
2020/12/29 09:20:24;;;;;;;21.48;8.35;;;1.90;92.60;;;;;;5110248;28;20716;-77
2020/12/29 09:23:16;;;;;;;18.88;8.75;;;1.90;92.70;;;;;;5108222;28;20744;-78
2020/12/29 09:25:44;;;;;;;19.07;8.10;;;2.00;92.20;;;;;;5140943;27;20538;-78
2020/12/29 09:28:22;;;;;;;24.48;10.90;;;2.00;92.10;;;;;;5110814;28;20428;-78
2020/12/29 09:31:02;;;;;;;19.85;9.38;;;2.00;92.50;;;;;;5111430;28;20432;-78
2020/12/29 09:33:29;;;;;;;16.83;7.72;;;2.00;92.20;;;;;;5111425;28;20827;-77
2020/12/29 09:35:58;;;;;;;17.67;8.23;;;2.10;91.50;;;;;;5111142;28;20373;-78
2020/12/29 09:38:23;;;;;;;16.73;7.85;;;2.10;91.50;;;;;;5110190;28;20476;-77
2020/12/29 09:40:50;;;;;;;15.00;7.60;;;2.10;91.50;;;;;;5110982;28;20423;-77
2020/12/29 09:43:16;;;;;;;18.67;8.70;;;2.10;91.90;;;;;;5111029;28;20802;-77
2020/12/29 09:45:50;;;;;;;17.38;7.60;;;2.10;91.70;;;;;;5110632;28;20404;-77
2020/12/29 09:48:17;;;;;;;19.27;8.60;;;2.20;91.50;;;;;;5110767;28;20464;-77
2020/12/29 09:50:43;;;;;;;15.40;8.52;;;2.20;91.90;;;;;;5110804;28;20407;-77
2020/12/29 09:53:09;;;;;;;15.50;7.80;;;2.20;91.50;;;;;;5110725;28;20407;-77
2020/12/29 09:55:35;;;;;;;17.43;8.17;;;2.20;91.60;;;;;;5109664;28;20853;-77
2020/12/29 09:58:00;;;;;;;17.20;9.15;;;2.20;91.80;;;;;;5109208;28;20494;-77
2020/12/29 10:00:27;;;;;;;14.83;7.97;;;2.20;91.50;;;;;;5109937;28;20413;-77
2020/12/29 10:02:53;;;;;;;14.60;7.40;;;2.20;92.00;;;;;;5110486;28;20437;-77
2020/12/29 10:05:18;;;;;;;15.23;7.70;;;2.20;91.50;;;;;;5110135;28;20428;-77
2020/12/29 10:07:45;;;;;;;16.75;7.07;;;2.20;91.00;;;;;;5108349;28;20414;-76
2020/12/29 10:10:10;;;;;;;12.87;7.60;;;2.20;91.30;;;;;;5110697;28;20459;-76
2020/12/29 10:12:36;;;;;;;15.48;7.80;;;2.30;91.00;;;;;;5110446;28;20376;-76
2020/12/29 10:15:03;;;;;;;18.05;8.35;;;2.40;90.90;;;;;;5110671;28;20372;-76
2020/12/29 10:17:28;;;;;;;16.23;6.97;;;2.40;91.30;;;;;;5109722;28;20449;-76
2020/12/29 10:19:56;;;;;;;14.13;7.85;;;2.40;90.80;;;;;;5111317;28;20388;-76
2020/12/29 10:22:22;;;;;;;16.85;7.88;;;2.50;91.20;;;;;;5109080;28;20503;-76
2020/12/29 10:24:47;;;;;;;18.30;8.20;;;2.50;90.50;;;;;;5110681;28;20486;-76
2020/12/29 10:27:13;;;;;;;14.10;5.83;;;2.50;90.90;;;;;;5109593;28;20388;-76
2020/12/29 10:29:39;;;;;;;14.80;7.50;;;2.50;90.60;;;;;;5110298;28;20368;-75
2020/12/29 10:32:04;;;;;;;15.85;7.40;;;2.40;90.60;;;;;;5110024;28;20372;-76
2020/12/29 10:34:30;;;;;;;14.45;7.68;;;2.40;90.70;;;;;;5108855;28;20427;-77
2020/12/29 10:36:55;;;;;;;17.90;7.00;;;2.40;91.20;;;;;;5109289;28;20907;-77
2020/12/29 10:39:21;;;;;;;15.52;8.20;;;2.40;91.00;;;;;;5110847;28;20729;-76
2020/12/29 10:41:47;;;;;;;15.80;8.55;;;2.40;91.20;;;;;;5108524;28;20380;-77
2020/12/29 10:44:12;;;;;;;20.77;9.32;;;2.40;91.30;;;;;;5110253;28;20422;-77
2020/12/29 10:46:38;;;;;;;21.00;9.25;;;2.40;91.60;;;;;;5110178;28;20835;-77
2020/12/29 10:49:04;;;;;;;23.70;10.80;;;2.40;91.80;;;;;;5110342;28;20429;-77
2020/12/29 10:51:30;;;;;;;27.57;12.47;;;2.40;91.70;;;;;;5112191;28;20396;-76
2020/12/29 10:53:56;;;;;;;21.52;11.27;;;2.50;91.60;;;;;;5114280;28;20371;-77
2020/12/29 10:56:22;;;;;;;23.93;11.27;;;2.50;91.20;;;;;;5113625;28;20536;-77
2020/12/29 10:58:47;;;;;;;26.63;11.27;;;2.50;91.50;;;;;;5113558;28;20805;-77
2020/12/29 11:01:19;;;;;;;23.90;11.97;;;2.60;91.30;;;;;;5114230;28;20860;-77
2020/12/29 11:03:44;;;;;;;26.55;12.02;;;2.60;91.40;;;;;;5112722;28;20499;-77
2020/12/29 11:06:15;;;;;;;24.07;12.27;;;2.60;91.30;;;;;;5112463;28;20467;-77
2020/12/29 11:08:41;;;;;;;24.93;11.70;;;2.70;91.60;;;;;;5113530;28;20431;-77
2020/12/29 11:11:07;;;;;;;25.85;13.10;;;2.70;91.40;;;;;;5113738;28;20919;-77
2020/12/29 11:13:32;;;;;;;22.67;12.10;;;2.60;91.70;;;;;;5114154;28;20472;-77
2020/12/29 11:15:58;;;;;;;27.27;13.03;;;2.60;91.70;;;;;;5113753;28;20385;-77
2020/12/29 11:18:24;;;;;;;24.70;12.68;;;2.60;91.80;;;;;;5112271;28;20884;-77
2020/12/29 11:20:50;;;;;;;25.17;13.30;;;2.60;92.10;;;;;;5113752;28;20936;-77
2020/12/29 11:23:16;;;;;;;25.35;12.05;;;2.60;92.30;;;;;;5112642;28;20895;-77
2020/12/29 11:25:41;;;;;;;28.33;12.53;;;2.50;92.60;;;;;;5112500;28;20377;-75
2020/12/29 11:28:07;;;;;;;30.40;13.53;;;2.40;93.30;;;;;;5113858;28;20392;-76
2020/12/29 11:30:32;;;;;;;28.13;14.73;;;2.40;93.50;;;;;;5113618;28;20820;-75
2020/12/29 11:32:58;;;;;;;32.27;14.80;;;2.40;93.80;;;;;;5113676;28;20722;-75
2020/12/29 11:35:23;;;;;;;29.83;14.83;;;2.40;94.10;;;;;;5113528;28;20377;-75
2020/12/29 11:37:49;;;;;;;28.40;13.60;;;2.40;94.10;;;;;;5111855;28;20409;-75
2020/12/29 11:40:15;;;;;;;29.63;14.40;;;2.40;94.20;;;;;;5113477;28;20373;-75
2020/12/29 11:42:40;;;;;;;33.10;16.23;;;2.40;94.00;;;;;;5112909;28;20383;-75
2020/12/29 11:45:06;;;;;;;33.70;16.40;;;2.40;94.50;;;;;;5113378;28;20430;-75
2020/12/29 11:47:31;;;;;;;39.17;16.80;;;2.40;94.60;;;;;;5113072;28;20466;-75
2020/12/29 11:49:57;;;;;;;34.22;15.85;;;2.40;94.90;;;;;;5113666;28;20372;-75
2020/12/29 11:52:23;;;;;;;29.95;15.45;;;2.40;95.00;;;;;;5112466;28;20376;-76
2020/12/29 11:54:49;;;;;;;33.78;16.63;;;2.40;94.90;;;;;;5111365;27;20392;-75
2020/12/29 11:57:15;;;;;;;39.65;17.58;;;2.40;95.10;;;;;;5111245;28;20490;-76
2020/12/29 11:59:41;;;;;;;36.67;16.20;;;2.40;95.10;;;;;;5113220;28;20797;-76
2020/12/29 12:02:06;;;;;;;33.40;16.70;;;2.40;94.90;;;;;;5111476;28;20372;-76
2020/12/29 12:04:32;;;;;;;37.90;17.23;;;2.40;94.80;;;;;;5113298;28;20394;-76
2020/12/29 12:06:57;;;;;;;42.97;17.30;;;2.50;95.10;;;;;;5112824;28;20405;-76
2020/12/29 12:09:23;;;;;;;42.67;18.33;;;2.50;95.10;;;;;;5111569;27;20445;-76
2020/12/29 12:11:48;;;;;;;41.03;18.40;;;2.50;95.00;;;;;;5113137;28;20433;-76
2020/12/29 12:14:14;;;;;;;41.50;18.73;;;2.50;95.20;;;;;;5112995;28;20371;-76
2020/12/29 12:16:40;;;;;;;40.07;19.00;;;2.60;95.00;;;;;;5112296;28;20376;-76
2020/12/29 12:19:06;;;;;;;39.10;18.63;;;2.60;94.90;;;;;;5112499;28;20416;-76
2020/12/29 12:21:34;;;;;;;41.83;18.63;;;2.60;95.30;;;;;;5112798;28;20384;-80
2020/12/29 12:24:00;;;;;;;43.38;19.45;;;2.60;95.00;;;;;;5112344;28;20371;-81
2020/12/29 12:26:26;;;;;;;40.78;19.75;;;2.70;95.20;;;;;;5113035;28;20429;-81
2020/12/29 12:28:52;;;;;;;40.40;19.23;;;2.60;95.20;;;;;;5111746;28;20388;-81
2020/12/29 12:31:18;;;;;;;40.28;16.90;;;2.70;95.10;;;;;;5112525;28;20770;-87
2020/12/29 12:33:44;;;;;;;41.43;20.50;;;2.70;94.80;;;;;;5111073;28;20384;-79
2020/12/29 12:36:10;;;;;;;41.38;19.85;;;2.70;95.00;;;;;;5111768;28;20583;-81
2020/12/29 12:38:36;;;;;;;46.22;20.20;;;2.70;95.30;;;;;;5111253;28;20399;-81
2020/12/29 12:41:05;;;;;;;44.63;19.47;;;2.70;95.40;;;;;;5110843;28;20474;-76
2020/12/29 12:43:31;;;;;;;46.55;20.05;;;2.80;95.00;;;;;;5112191;28;20408;-77
2020/12/29 12:45:57;;;;;;;46.00;19.43;;;2.80;94.90;;;;;;5108393;28;20384;-78
2020/12/29 12:48:23;;;;;;;51.77;20.87;;;2.80;94.90;;;;;;5111775;28;20569;-78
2020/12/29 12:50:49;;;;;;;44.80;20.30;;;2.80;95.20;;;;;;5111939;28;20376;-78